sensor_id;sensor_type;location;lat;lon;timestamp;P1;durP1;ratioP1;P2;durP2;ratioP2
39772;SDS011;25451;51.960;6.250;2022-12-07T00:00:26;8.73;;;4.80;;
39772;SDS011;25451;51.960;6.250;2022-12-07T00:02:52;8.40;;;4.73;;
39772;SDS011;25451;51.960;6.250;2022-12-07T00:05:17;10.50;;;4.83;;
39772;SDS011;25451;51.960;6.250;2022-12-07T00:07:42;8.17;;;4.50;;
39772;SDS011;25451;51.960;6.250;2022-12-07T00:10:08;8.03;;;4.77;;
39772;SDS011;25451;51.960;6.250;2022-12-07T00:12:33;9.27;;;4.70;;
39772;SDS011;25451;51.960;6.250;2022-12-07T00:14:58;8.70;;;4.80;;
39772;SDS011;25451;51.960;6.250;2022-12-07T00:17:23;7.67;;;4.30;;
39772;SDS011;25451;51.960;6.250;2022-12-07T00:19:49;8.30;;;4.80;;
39772;SDS011;25451;51.960;6.250;2022-12-07T00:22:14;8.43;;;4.73;;
39772;SDS011;25451;51.960;6.250;2022-12-07T00:24:39;10.93;;;4.60;;
39772;SDS011;25451;51.960;6.250;2022-12-07T00:27:04;8.27;;;4.90;;
39772;SDS011;25451;51.960;6.250;2022-12-07T00:29:30;8.90;;;4.77;;
39772;SDS011;25451;51.960;6.250;2022-12-07T00:31:55;7.37;;;4.23;;
39772;SDS011;25451;51.960;6.250;2022-12-07T00:34:21;9.03;;;4.33;;
39772;SDS011;25451;51.960;6.250;2022-12-07T00:36:47;9.75;;;4.40;;
39772;SDS011;25451;51.960;6.250;2022-12-07T00:39:13;7.28;;;4.18;;
39772;SDS011;25451;51.960;6.250;2022-12-07T00:41:38;8.43;;;4.40;;
39772;SDS011;25451;51.960;6.250;2022-12-07T00:44:04;7.50;;;4.30;;
39772;SDS011;25451;51.960;6.250;2022-12-07T00:46:29;9.25;;;4.20;;
39772;SDS011;25451;51.960;6.250;2022-12-07T00:48:54;7.30;;;3.87;;
39772;SDS011;25451;51.960;6.250;2022-12-07T00:51:21;8.00;;;3.73;;
39772;SDS011;25451;51.960;6.250;2022-12-07T00:53:48;7.40;;;4.13;;
39772;SDS011;25451;51.960;6.250;2022-12-07T00:56:14;7.20;;;4.07;;
39772;SDS011;25451;51.960;6.250;2022-12-07T00:58:41;10.63;;;4.07;;
39772;SDS011;25451;51.960;6.250;2022-12-07T01:01:07;6.85;;;3.58;;
39772;SDS011;25451;51.960;6.250;2022-12-07T01:03:34;6.07;;;3.60;;
39772;SDS011;25451;51.960;6.250;2022-12-07T01:06:00;7.97;;;3.67;;
39772;SDS011;25451;51.960;6.250;2022-12-07T01:08:27;7.15;;;3.38;;
39772;SDS011;25451;51.960;6.250;2022-12-07T01:11:03;5.10;;;3.13;;
39772;SDS011;25451;51.960;6.250;2022-12-07T01:13:31;6.23;;;3.10;;
39772;SDS011;25451;51.960;6.250;2022-12-07T01:15:58;6.90;;;2.90;;
39772;SDS011;25451;51.960;6.250;2022-12-07T01:18:26;6.32;;;2.70;;
39772;SDS011;25451;51.960;6.250;2022-12-07T01:20:59;8.38;;;3.00;;
39772;SDS011;25451;51.960;6.250;2022-12-07T01:23:32;5.60;;;2.70;;
39772;SDS011;25451;51.960;6.250;2022-12-07T01:25:58;6.87;;;2.73;;
39772;SDS011;25451;51.960;6.250;2022-12-07T01:28:25;4.07;;;2.25;;
39772;SDS011;25451;51.960;6.250;2022-12-07T01:30:58;5.10;;;2.53;;
39772;SDS011;25451;51.960;6.250;2022-12-07T01:33:37;5.15;;;2.80;;
39772;SDS011;25451;51.960;6.250;2022-12-07T01:36:05;4.93;;;2.40;;
39772;SDS011;25451;51.960;6.250;2022-12-07T01:38:38;4.00;;;2.53;;
39772;SDS011;25451;51.960;6.250;2022-12-07T01:41:04;4.27;;;2.33;;
39772;SDS011;25451;51.960;6.250;2022-12-07T01:43:30;6.00;;;2.70;;
39772;SDS011;25451;51.960;6.250;2022-12-07T01:45:57;4.95;;;2.42;;
39772;SDS011;25451;51.960;6.250;2022-12-07T01:48:24;8.13;;;2.90;;
39772;SDS011;25451;51.960;6.250;2022-12-07T01:50:53;5.05;;;2.65;;
39772;SDS011;25451;51.960;6.250;2022-12-07T01:53:21;4.50;;;2.70;;
39772;SDS011;25451;51.960;6.250;2022-12-07T01:55:51;7.93;;;2.75;;
39772;SDS011;25451;51.960;6.250;2022-12-07T01:58:18;5.88;;;2.90;;
39772;SDS011;25451;51.960;6.250;2022-12-07T02:00:43;6.80;;;3.07;;
39772;SDS011;25451;51.960;6.250;2022-12-07T02:03:11;6.13;;;2.70;;
39772;SDS011;25451;51.960;6.250;2022-12-07T02:05:41;6.70;;;2.80;;
39772;SDS011;25451;51.960;6.250;2022-12-07T02:08:07;5.97;;;3.10;;
39772;SDS011;25451;51.960;6.250;2022-12-07T02:10:35;5.90;;;2.85;;
39772;SDS011;25451;51.960;6.250;2022-12-07T02:15:51;5.60;;;3.00;;
39772;SDS011;25451;51.960;6.250;2022-12-07T02:18:35;6.22;;;3.22;;
39772;SDS011;25451;51.960;6.250;2022-12-07T02:29:23;7.33;;;3.07;;
39772;SDS011;25451;51.960;6.250;2022-12-07T02:34:46;6.05;;;2.63;;
39772;SDS011;25451;51.960;6.250;2022-12-07T02:37:36;9.43;;;2.97;;
39772;SDS011;25451;51.960;6.250;2022-12-07T02:40:27;5.97;;;2.97;;
39772;SDS011;25451;51.960;6.250;2022-12-07T02:43:01;7.03;;;3.27;;
39772;SDS011;25451;51.960;6.250;2022-12-07T02:45:31;8.40;;;3.70;;
39772;SDS011;25451;51.960;6.250;2022-12-07T02:47:59;6.82;;;3.05;;
39772;SDS011;25451;51.960;6.250;2022-12-07T02:50:26;5.25;;;2.80;;
39772;SDS011;25451;51.960;6.250;2022-12-07T02:52:52;5.65;;;2.85;;
39772;SDS011;25451;51.960;6.250;2022-12-07T02:55:18;5.93;;;3.23;;
39772;SDS011;25451;51.960;6.250;2022-12-07T03:00:26;8.93;;;3.10;;
39772;SDS011;25451;51.960;6.250;2022-12-07T03:05:34;7.70;;;3.13;;
39772;SDS011;25451;51.960;6.250;2022-12-07T03:13:30;7.93;;;3.40;;
39772;SDS011;25451;51.960;6.250;2022-12-07T03:18:29;6.33;;;2.67;;
39772;SDS011;25451;51.960;6.250;2022-12-07T03:21:02;5.85;;;2.90;;
39772;SDS011;25451;51.960;6.250;2022-12-07T03:23:34;9.18;;;3.33;;
39772;SDS011;25451;51.960;6.250;2022-12-07T03:26:02;6.35;;;3.15;;
39772;SDS011;25451;51.960;6.250;2022-12-07T03:28:31;5.22;;;3.03;;
39772;SDS011;25451;51.960;6.250;2022-12-07T03:37:33;8.10;;;2.97;;
39772;SDS011;25451;51.960;6.250;2022-12-07T03:42:38;5.90;;;2.85;;
39772;SDS011;25451;51.960;6.250;2022-12-07T03:45:04;7.10;;;3.23;;
39772;SDS011;25451;51.960;6.250;2022-12-07T03:47:32;8.27;;;3.25;;
39772;SDS011;25451;51.960;6.250;2022-12-07T03:50:04;6.03;;;2.75;;
39772;SDS011;25451;51.960;6.250;2022-12-07T03:52:37;8.20;;;3.10;;
39772;SDS011;25451;51.960;6.250;2022-12-07T03:57:45;6.57;;;2.80;;
39772;SDS011;25451;51.960;6.250;2022-12-07T04:00:14;5.63;;;2.80;;
39772;SDS011;25451;51.960;6.250;2022-12-07T04:02:41;6.22;;;2.95;;
39772;SDS011;25451;51.960;6.250;2022-12-07T04:05:07;4.57;;;2.67;;
39772;SDS011;25451;51.960;6.250;2022-12-07T04:07:33;5.35;;;2.50;;
39772;SDS011;25451;51.960;6.250;2022-12-07T04:09:58;6.30;;;3.00;;
39772;SDS011;25451;51.960;6.250;2022-12-07T04:12:23;6.53;;;2.50;;
39772;SDS011;25451;51.960;6.250;2022-12-07T04:14:49;6.13;;;2.70;;
39772;SDS011;25451;51.960;6.250;2022-12-07T04:17:14;7.57;;;3.03;;
39772;SDS011;25451;51.960;6.250;2022-12-07T04:19:39;6.07;;;2.83;;
39772;SDS011;25451;51.960;6.250;2022-12-07T04:22:05;4.23;;;2.40;;
39772;SDS011;25451;51.960;6.250;2022-12-07T04:24:31;6.78;;;2.50;;
39772;SDS011;25451;51.960;6.250;2022-12-07T04:26:57;4.80;;;2.42;;
39772;SDS011;25451;51.960;6.250;2022-12-07T04:29:23;7.27;;;2.60;;
39772;SDS011;25451;51.960;6.250;2022-12-07T04:31:49;8.50;;;2.60;;
39772;SDS011;25451;51.960;6.250;2022-12-07T04:34:14;6.18;;;2.50;;
39772;SDS011;25451;51.960;6.250;2022-12-07T04:36:41;7.57;;;2.60;;
39772;SDS011;25451;51.960;6.250;2022-12-07T04:39:07;6.20;;;2.40;;
39772;SDS011;25451;51.960;6.250;2022-12-07T04:41:38;5.38;;;2.35;;
39772;SDS011;25451;51.960;6.250;2022-12-07T04:44:03;8.93;;;2.63;;
39772;SDS011;25451;51.960;6.250;2022-12-07T04:46:32;6.32;;;2.50;;
39772;SDS011;25451;51.960;6.250;2022-12-07T04:48:58;6.03;;;2.50;;
39772;SDS011;25451;51.960;6.250;2022-12-07T04:51:24;5.50;;;2.67;;
39772;SDS011;25451;51.960;6.250;2022-12-07T04:53:52;6.18;;;2.50;;
39772;SDS011;25451;51.960;6.250;2022-12-07T04:56:18;6.60;;;2.60;;
39772;SDS011;25451;51.960;6.250;2022-12-07T04:58:44;5.97;;;2.55;;
39772;SDS011;25451;51.960;6.250;2022-12-07T05:01:10;11.55;;;2.88;;
39772;SDS011;25451;51.960;6.250;2022-12-07T05:03:36;5.37;;;2.57;;
39772;SDS011;25451;51.960;6.250;2022-12-07T05:06:02;6.60;;;2.58;;
39772;SDS011;25451;51.960;6.250;2022-12-07T05:08:28;5.13;;;2.30;;
39772;SDS011;25451;51.960;6.250;2022-12-07T05:10:54;4.83;;;2.50;;
39772;SDS011;25451;51.960;6.250;2022-12-07T05:13:19;5.60;;;2.77;;
39772;SDS011;25451;51.960;6.250;2022-12-07T05:15:46;6.80;;;2.67;;
39772;SDS011;25451;51.960;6.250;2022-12-07T05:18:12;5.20;;;2.35;;
39772;SDS011;25451;51.960;6.250;2022-12-07T05:20:38;8.90;;;2.80;;
39772;SDS011;25451;51.960;6.250;2022-12-07T05:23:03;6.40;;;2.88;;
39772;SDS011;25451;51.960;6.250;2022-12-07T05:25:29;6.73;;;2.40;;
39772;SDS011;25451;51.960;6.250;2022-12-07T05:27:54;5.47;;;2.37;;
39772;SDS011;25451;51.960;6.250;2022-12-07T05:30:21;6.18;;;2.30;;
39772;SDS011;25451;51.960;6.250;2022-12-07T05:32:46;4.63;;;2.37;;
39772;SDS011;25451;51.960;6.250;2022-12-07T05:35:11;5.33;;;2.27;;
39772;SDS011;25451;51.960;6.250;2022-12-07T05:37:36;5.67;;;2.27;;
39772;SDS011;25451;51.960;6.250;2022-12-07T05:40:02;5.17;;;2.10;;
39772;SDS011;25451;51.960;6.250;2022-12-07T05:42:28;5.10;;;2.10;;
39772;SDS011;25451;51.960;6.250;2022-12-07T05:44:54;5.03;;;2.00;;
39772;SDS011;25451;51.960;6.250;2022-12-07T05:47:19;5.23;;;2.00;;
39772;SDS011;25451;51.960;6.250;2022-12-07T05:49:44;5.27;;;2.50;;
39772;SDS011;25451;51.960;6.250;2022-12-07T05:52:10;7.43;;;3.03;;
39772;SDS011;25451;51.960;6.250;2022-12-07T05:54:35;11.30;;;3.63;;
39772;SDS011;25451;51.960;6.250;2022-12-07T05:57:00;10.43;;;3.50;;
39772;SDS011;25451;51.960;6.250;2022-12-07T05:59:26;10.17;;;3.70;;
39772;SDS011;25451;51.960;6.250;2022-12-07T06:04:27;7.10;;;3.13;;
39772;SDS011;25451;51.960;6.250;2022-12-07T06:06:55;6.70;;;2.90;;
39772;SDS011;25451;51.960;6.250;2022-12-07T06:09:21;6.95;;;3.33;;
39772;SDS011;25451;51.960;6.250;2022-12-07T06:11:47;5.93;;;2.60;;
39772;SDS011;25451;51.960;6.250;2022-12-07T06:14:31;5.63;;;2.72;;
39772;SDS011;25451;51.960;6.250;2022-12-07T06:16:57;7.23;;;2.93;;
39772;SDS011;25451;51.960;6.250;2022-12-07T06:19:22;5.30;;;2.38;;
39772;SDS011;25451;51.960;6.250;2022-12-07T06:21:48;5.33;;;2.70;;
39772;SDS011;25451;51.960;6.250;2022-12-07T06:24:14;5.93;;;2.30;;
39772;SDS011;25451;51.960;6.250;2022-12-07T06:26:40;3.85;;;2.10;;
39772;SDS011;25451;51.960;6.250;2022-12-07T06:29:06;5.82;;;2.42;;
39772;SDS011;25451;51.960;6.250;2022-12-07T06:31:32;5.27;;;2.57;;
39772;SDS011;25451;51.960;6.250;2022-12-07T06:34:01;5.40;;;2.20;;
39772;SDS011;25451;51.960;6.250;2022-12-07T06:36:29;4.38;;;2.22;;
39772;SDS011;25451;51.960;6.250;2022-12-07T06:38:54;4.85;;;2.38;;
39772;SDS011;25451;51.960;6.250;2022-12-07T06:41:20;3.50;;;2.17;;
39772;SDS011;25451;51.960;6.250;2022-12-07T06:43:46;5.10;;;2.27;;
39772;SDS011;25451;51.960;6.250;2022-12-07T06:46:11;4.43;;;2.15;;
39772;SDS011;25451;51.960;6.250;2022-12-07T06:48:36;4.23;;;2.17;;
39772;SDS011;25451;51.960;6.250;2022-12-07T06:51:02;5.37;;;2.30;;
39772;SDS011;25451;51.960;6.250;2022-12-07T06:53:27;8.03;;;2.30;;
39772;SDS011;25451;51.960;6.250;2022-12-07T06:55:52;3.40;;;2.07;;
39772;SDS011;25451;51.960;6.250;2022-12-07T06:58:18;5.97;;;2.30;;
39772;SDS011;25451;51.960;6.250;2022-12-07T07:00:44;6.30;;;2.50;;
39772;SDS011;25451;51.960;6.250;2022-12-07T07:03:10;4.72;;;2.03;;
39772;SDS011;25451;51.960;6.250;2022-12-07T07:05:36;5.00;;;2.20;;
39772;SDS011;25451;51.960;6.250;2022-12-07T07:08:01;3.80;;;2.33;;
39772;SDS011;25451;51.960;6.250;2022-12-07T07:10:27;5.15;;;2.30;;
39772;SDS011;25451;51.960;6.250;2022-12-07T07:12:53;5.70;;;2.30;;
39772;SDS011;25451;51.960;6.250;2022-12-07T07:15:18;4.43;;;2.13;;
39772;SDS011;25451;51.960;6.250;2022-12-07T07:17:43;5.03;;;1.97;;
39772;SDS011;25451;51.960;6.250;2022-12-07T07:20:09;3.53;;;1.97;;
39772;SDS011;25451;51.960;6.250;2022-12-07T07:22:35;3.40;;;2.05;;
39772;SDS011;25451;51.960;6.250;2022-12-07T07:25:00;5.90;;;2.20;;
39772;SDS011;25451;51.960;6.250;2022-12-07T07:27:25;4.33;;;1.70;;
39772;SDS011;25451;51.960;6.250;2022-12-07T07:29:51;5.20;;;1.93;;
39772;SDS011;25451;51.960;6.250;2022-12-07T07:32:16;5.73;;;1.80;;
39772;SDS011;25451;51.960;6.250;2022-12-07T07:34:41;3.87;;;1.60;;
39772;SDS011;25451;51.960;6.250;2022-12-07T07:37:07;4.67;;;1.97;;
39772;SDS011;25451;51.960;6.250;2022-12-07T07:39:32;5.97;;;1.90;;
39772;SDS011;25451;51.960;6.250;2022-12-07T07:41:57;8.63;;;1.70;;
39772;SDS011;25451;51.960;6.250;2022-12-07T07:44:22;5.33;;;1.93;;
39772;SDS011;25451;51.960;6.250;2022-12-07T07:46:48;5.20;;;1.70;;
39772;SDS011;25451;51.960;6.250;2022-12-07T07:49:13;6.20;;;2.00;;
39772;SDS011;25451;51.960;6.250;2022-12-07T07:51:38;5.27;;;2.00;;
39772;SDS011;25451;51.960;6.250;2022-12-07T07:54:03;5.50;;;1.80;;
39772;SDS011;25451;51.960;6.250;2022-12-07T07:56:29;3.57;;;1.60;;
39772;SDS011;25451;51.960;6.250;2022-12-07T07:58:54;4.87;;;1.87;;
39772;SDS011;25451;51.960;6.250;2022-12-07T08:01:20;3.37;;;1.67;;
39772;SDS011;25451;51.960;6.250;2022-12-07T08:03:48;4.47;;;1.70;;
39772;SDS011;25451;51.960;6.250;2022-12-07T08:06:13;4.82;;;1.50;;
39772;SDS011;25451;51.960;6.250;2022-12-07T08:08:39;4.40;;;1.70;;
39772;SDS011;25451;51.960;6.250;2022-12-07T08:11:05;5.00;;;1.50;;
39772;SDS011;25451;51.960;6.250;2022-12-07T08:13:31;4.20;;;1.75;;
39772;SDS011;25451;51.960;6.250;2022-12-07T08:15:56;3.07;;;1.60;;
39772;SDS011;25451;51.960;6.250;2022-12-07T08:18:21;4.27;;;2.07;;
39772;SDS011;25451;51.960;6.250;2022-12-07T08:20:47;4.13;;;1.60;;
39772;SDS011;25451;51.960;6.250;2022-12-07T08:23:12;2.92;;;1.35;;
39772;SDS011;25451;51.960;6.250;2022-12-07T08:25:37;5.15;;;1.45;;
39772;SDS011;25451;51.960;6.250;2022-12-07T08:28:03;4.82;;;1.73;;
39772;SDS011;25451;51.960;6.250;2022-12-07T08:30:29;2.83;;;1.43;;
39772;SDS011;25451;51.960;6.250;2022-12-07T08:32:55;5.03;;;2.00;;
39772;SDS011;25451;51.960;6.250;2022-12-07T08:35:21;5.65;;;1.67;;
39772;SDS011;25451;51.960;6.250;2022-12-07T08:37:46;3.92;;;1.55;;
39772;SDS011;25451;51.960;6.250;2022-12-07T08:40:12;5.73;;;1.97;;
39772;SDS011;25451;51.960;6.250;2022-12-07T08:42:44;4.45;;;1.80;;
39772;SDS011;25451;51.960;6.250;2022-12-07T08:45:16;7.23;;;2.00;;
39772;SDS011;25451;51.960;6.250;2022-12-07T08:50:35;5.45;;;1.80;;
39772;SDS011;25451;51.960;6.250;2022-12-07T08:53:02;5.72;;;1.98;;
39772;SDS011;25451;51.960;6.250;2022-12-07T08:55:29;4.45;;;1.73;;
39772;SDS011;25451;51.960;6.250;2022-12-07T08:57:57;4.77;;;1.60;;
39772;SDS011;25451;51.960;6.250;2022-12-07T09:00:23;3.70;;;1.52;;
39772;SDS011;25451;51.960;6.250;2022-12-07T09:02:48;4.37;;;1.60;;
39772;SDS011;25451;51.960;6.250;2022-12-07T09:05:14;5.30;;;2.00;;
39772;SDS011;25451;51.960;6.250;2022-12-07T09:07:43;3.13;;;1.58;;
39772;SDS011;25451;51.960;6.250;2022-12-07T09:10:14;4.85;;;1.80;;
39772;SDS011;25451;51.960;6.250;2022-12-07T09:12:40;4.60;;;1.90;;
39772;SDS011;25451;51.960;6.250;2022-12-07T09:15:05;2.97;;;1.60;;
39772;SDS011;25451;51.960;6.250;2022-12-07T09:17:34;2.57;;;1.20;;
39772;SDS011;25451;51.960;6.250;2022-12-07T09:20:00;3.33;;;1.52;;
39772;SDS011;25451;51.960;6.250;2022-12-07T09:22:28;5.33;;;1.47;;
39772;SDS011;25451;51.960;6.250;2022-12-07T09:24:55;4.28;;;1.45;;
39772;SDS011;25451;51.960;6.250;2022-12-07T09:27:20;6.23;;;1.60;;
39772;SDS011;25451;51.960;6.250;2022-12-07T09:29:45;3.90;;;1.40;;
39772;SDS011;25451;51.960;6.250;2022-12-07T09:32:11;5.00;;;1.75;;
39772;SDS011;25451;51.960;6.250;2022-12-07T09:34:36;6.30;;;1.70;;
39772;SDS011;25451;51.960;6.250;2022-12-07T09:37:03;5.70;;;1.60;;
39772;SDS011;25451;51.960;6.250;2022-12-07T09:39:28;6.87;;;1.70;;
39772;SDS011;25451;51.960;6.250;2022-12-07T09:41:54;5.35;;;1.70;;
39772;SDS011;25451;51.960;6.250;2022-12-07T09:44:23;4.40;;;1.50;;
39772;SDS011;25451;51.960;6.250;2022-12-07T09:46:50;8.90;;;1.77;;
39772;SDS011;25451;51.960;6.250;2022-12-07T09:49:18;4.13;;;1.40;;
39772;SDS011;25451;51.960;6.250;2022-12-07T09:51:46;4.10;;;1.33;;
39772;SDS011;25451;51.960;6.250;2022-12-07T09:54:12;5.07;;;1.40;;
39772;SDS011;25451;51.960;6.250;2022-12-07T09:56:39;9.18;;;2.05;;
39772;SDS011;25451;51.960;6.250;2022-12-07T09:59:05;5.35;;;1.50;;
39772;SDS011;25451;51.960;6.250;2022-12-07T10:01:31;9.57;;;1.43;;
39772;SDS011;25451;51.960;6.250;2022-12-07T10:04:05;7.45;;;1.30;;
39772;SDS011;25451;51.960;6.250;2022-12-07T10:06:33;6.57;;;1.40;;
39772;SDS011;25451;51.960;6.250;2022-12-07T10:08:59;5.53;;;1.10;;
39772;SDS011;25451;51.960;6.250;2022-12-07T10:11:24;3.42;;;1.35;;
39772;SDS011;25451;51.960;6.250;2022-12-07T10:13:51;6.38;;;1.45;;
39772;SDS011;25451;51.960;6.250;2022-12-07T10:18:50;4.80;;;1.40;;
39772;SDS011;25451;51.960;6.250;2022-12-07T10:21:17;6.15;;;1.40;;
39772;SDS011;25451;51.960;6.250;2022-12-07T10:26:49;4.07;;;1.43;;
39772;SDS011;25451;51.960;6.250;2022-12-07T10:31:55;6.40;;;1.40;;
39772;SDS011;25451;51.960;6.250;2022-12-07T10:34:27;5.05;;;1.42;;
39772;SDS011;25451;51.960;6.250;2022-12-07T10:37:06;9.65;;;1.60;;
39772;SDS011;25451;51.960;6.250;2022-12-07T10:39:40;7.87;;;2.00;;
39772;SDS011;25451;51.960;6.250;2022-12-07T10:42:27;7.05;;;1.52;;
39772;SDS011;25451;51.960;6.250;2022-12-07T10:47:47;8.02;;;2.00;;
39772;SDS011;25451;51.960;6.250;2022-12-07T10:50:19;7.25;;;1.90;;
39772;SDS011;25451;51.960;6.250;2022-12-07T11:00:40;6.97;;;1.70;;
39772;SDS011;25451;51.960;6.250;2022-12-07T11:08:47;5.87;;;1.70;;
39772;SDS011;25451;51.960;6.250;2022-12-07T11:11:23;4.90;;;1.55;;
39772;SDS011;25451;51.960;6.250;2022-12-07T11:14:14;6.30;;;1.75;;
39772;SDS011;25451;51.960;6.250;2022-12-07T11:30:18;6.57;;;1.70;;
39772;SDS011;25451;51.960;6.250;2022-12-07T11:35:21;5.30;;;1.80;;
39772;SDS011;25451;51.960;6.250;2022-12-07T11:38:17;5.45;;;1.70;;
39772;SDS011;25451;51.960;6.250;2022-12-07T11:40:47;5.00;;;1.70;;
39772;SDS011;25451;51.960;6.250;2022-12-07T11:45:57;6.80;;;1.55;;
39772;SDS011;25451;51.960;6.250;2022-12-07T11:49:10;5.47;;;1.43;;
39772;SDS011;25451;51.960;6.250;2022-12-07T11:51:38;5.30;;;1.50;;
39772;SDS011;25451;51.960;6.250;2022-12-07T11:54:13;5.55;;;1.70;;
39772;SDS011;25451;51.960;6.250;2022-12-07T11:56:42;4.38;;;1.55;;
39772;SDS011;25451;51.960;6.250;2022-12-07T11:59:56;3.42;;;1.50;;
39772;SDS011;25451;51.960;6.250;2022-12-07T12:02:25;7.00;;;1.77;;
39772;SDS011;25451;51.960;6.250;2022-12-07T12:05:07;4.35;;;1.45;;
39772;SDS011;25451;51.960;6.250;2022-12-07T12:07:40;3.85;;;1.40;;
39772;SDS011;25451;51.960;6.250;2022-12-07T12:13:05;5.45;;;1.27;;
39772;SDS011;25451;51.960;6.250;2022-12-07T12:18:27;4.85;;;1.33;;
39772;SDS011;25451;51.960;6.250;2022-12-07T12:20:55;3.03;;;1.20;;
39772;SDS011;25451;51.960;6.250;2022-12-07T12:26:23;4.13;;;1.40;;
39772;SDS011;25451;51.960;6.250;2022-12-07T12:28:52;5.67;;;1.47;;
39772;SDS011;25451;51.960;6.250;2022-12-07T12:33:53;4.68;;;1.42;;
39772;SDS011;25451;51.960;6.250;2022-12-07T12:54:19;8.15;;;1.23;;
39772;SDS011;25451;51.960;6.250;2022-12-07T13:02:30;3.87;;;1.20;;
39772;SDS011;25451;51.960;6.250;2022-12-07T13:05:41;5.47;;;1.20;;
39772;SDS011;25451;51.960;6.250;2022-12-07T13:08:00;5.15;;;1.40;;
39772;SDS011;25451;51.960;6.250;2022-12-07T13:10:46;3.88;;;1.25;;
39772;SDS011;25451;51.960;6.250;2022-12-07T13:15:41;4.32;;;1.20;;
39772;SDS011;25451;51.960;6.250;2022-12-07T13:18:35;6.50;;;1.50;;
39772;SDS011;25451;51.960;6.250;2022-12-07T13:23:35;5.10;;;1.20;;
39772;SDS011;25451;51.960;6.250;2022-12-07T13:28:26;5.40;;;1.40;;
39772;SDS011;25451;51.960;6.250;2022-12-07T13:31:13;4.97;;;1.50;;
39772;SDS011;25451;51.960;6.250;2022-12-07T13:33:45;5.03;;;1.30;;
39772;SDS011;25451;51.960;6.250;2022-12-07T13:36:25;4.32;;;1.30;;
39772;SDS011;25451;51.960;6.250;2022-12-07T13:39:10;6.90;;;1.20;;
39772;SDS011;25451;51.960;6.250;2022-12-07T13:41:53;6.18;;;1.30;;
39772;SDS011;25451;51.960;6.250;2022-12-07T13:44:23;4.20;;;1.38;;
39772;SDS011;25451;51.960;6.250;2022-12-07T13:46:55;4.07;;;1.13;;
39772;SDS011;25451;51.960;6.250;2022-12-07T13:49:29;5.35;;;1.23;;
39772;SDS011;25451;51.960;6.250;2022-12-07T13:52:13;3.35;;;1.00;;
39772;SDS011;25451;51.960;6.250;2022-12-07T13:57:21;3.95;;;1.35;;
39772;SDS011;25451;51.960;6.250;2022-12-07T13:59:49;4.27;;;1.03;;
39772;SDS011;25451;51.960;6.250;2022-12-07T14:07:32;6.70;;;1.30;;
39772;SDS011;25451;51.960;6.250;2022-12-07T14:10:00;3.50;;;1.13;;
39772;SDS011;25451;51.960;6.250;2022-12-07T14:12:28;5.85;;;2.03;;
39772;SDS011;25451;51.960;6.250;2022-12-07T14:14:55;6.13;;;2.10;;
39772;SDS011;25451;51.960;6.250;2022-12-07T14:17:22;5.38;;;1.58;;
39772;SDS011;25451;51.960;6.250;2022-12-07T14:19:51;6.97;;;1.80;;
39772;SDS011;25451;51.960;6.250;2022-12-07T14:22:22;5.57;;;1.60;;
39772;SDS011;25451;51.960;6.250;2022-12-07T14:24:50;7.68;;;1.92;;
39772;SDS011;25451;51.960;6.250;2022-12-07T14:27:16;5.63;;;1.70;;
39772;SDS011;25451;51.960;6.250;2022-12-07T14:29:46;6.18;;;1.63;;
39772;SDS011;25451;51.960;6.250;2022-12-07T14:32:24;7.75;;;1.60;;
39772;SDS011;25451;51.960;6.250;2022-12-07T14:37:22;4.25;;;1.10;;
39772;SDS011;25451;51.960;6.250;2022-12-07T14:39:48;7.07;;;1.50;;
39772;SDS011;25451;51.960;6.250;2022-12-07T14:42:14;4.63;;;1.15;;
39772;SDS011;25451;51.960;6.250;2022-12-07T14:44:39;2.83;;;1.00;;
39772;SDS011;25451;51.960;6.250;2022-12-07T14:47:04;4.80;;;1.17;;
39772;SDS011;25451;51.960;6.250;2022-12-07T14:49:29;7.10;;;1.17;;
39772;SDS011;25451;51.960;6.250;2022-12-07T14:51:55;2.57;;;1.03;;
39772;SDS011;25451;51.960;6.250;2022-12-07T14:54:20;3.90;;;1.10;;
39772;SDS011;25451;51.960;6.250;2022-12-07T14:56:51;2.92;;;1.10;;
39772;SDS011;25451;51.960;6.250;2022-12-07T14:59:16;3.57;;;0.77;;
39772;SDS011;25451;51.960;6.250;2022-12-07T15:01:43;2.13;;;0.90;;
39772;SDS011;25451;51.960;6.250;2022-12-07T15:04:09;2.97;;;0.83;;
39772;SDS011;25451;51.960;6.250;2022-12-07T15:06:34;5.55;;;1.40;;
39772;SDS011;25451;51.960;6.250;2022-12-07T15:09:00;5.30;;;1.65;;
39772;SDS011;25451;51.960;6.250;2022-12-07T15:11:27;6.13;;;1.73;;
39772;SDS011;25451;51.960;6.250;2022-12-07T15:13:53;4.38;;;1.70;;
39772;SDS011;25451;51.960;6.250;2022-12-07T15:16:33;3.97;;;1.42;;
39772;SDS011;25451;51.960;6.250;2022-12-07T15:18:59;3.58;;;1.48;;
39772;SDS011;25451;51.960;6.250;2022-12-07T15:21:24;4.97;;;1.27;;
39772;SDS011;25451;51.960;6.250;2022-12-07T15:23:49;4.50;;;1.37;;
39772;SDS011;25451;51.960;6.250;2022-12-07T15:26:15;3.97;;;1.33;;
39772;SDS011;25451;51.960;6.250;2022-12-07T15:28:41;3.80;;;1.20;;
39772;SDS011;25451;51.960;6.250;2022-12-07T15:31:13;5.40;;;1.38;;
39772;SDS011;25451;51.960;6.250;2022-12-07T15:33:39;5.68;;;1.60;;
39772;SDS011;25451;51.960;6.250;2022-12-07T15:36:05;4.40;;;1.50;;
39772;SDS011;25451;51.960;6.250;2022-12-07T15:38:30;6.85;;;2.08;;
39772;SDS011;25451;51.960;6.250;2022-12-07T15:40:56;4.40;;;1.67;;
39772;SDS011;25451;51.960;6.250;2022-12-07T15:43:22;4.87;;;1.63;;
39772;SDS011;25451;51.960;6.250;2022-12-07T15:46:06;5.18;;;2.00;;
39772;SDS011;25451;51.960;6.250;2022-12-07T15:48:31;5.60;;;1.70;;
39772;SDS011;25451;51.960;6.250;2022-12-07T15:51:07;3.97;;;1.67;;
39772;SDS011;25451;51.960;6.250;2022-12-07T15:53:33;5.07;;;1.70;;
39772;SDS011;25451;51.960;6.250;2022-12-07T15:55:59;6.47;;;2.38;;
39772;SDS011;25451;51.960;6.250;2022-12-07T15:58:25;7.03;;;2.55;;
39772;SDS011;25451;51.960;6.250;2022-12-07T16:00:51;7.97;;;2.83;;
39772;SDS011;25451;51.960;6.250;2022-12-07T16:03:16;5.80;;;2.40;;
39772;SDS011;25451;51.960;6.250;2022-12-07T16:05:41;5.57;;;2.42;;
39772;SDS011;25451;51.960;6.250;2022-12-07T16:08:07;6.33;;;2.73;;
39772;SDS011;25451;51.960;6.250;2022-12-07T16:10:32;6.83;;;2.60;;
39772;SDS011;25451;51.960;6.250;2022-12-07T16:12:59;6.10;;;2.50;;
39772;SDS011;25451;51.960;6.250;2022-12-07T16:15:24;5.47;;;2.43;;
39772;SDS011;25451;51.960;6.250;2022-12-07T16:17:50;5.70;;;2.60;;
39772;SDS011;25451;51.960;6.250;2022-12-07T16:20:16;3.33;;;1.80;;
39772;SDS011;25451;51.960;6.250;2022-12-07T16:22:41;3.83;;;1.67;;
39772;SDS011;25451;51.960;6.250;2022-12-07T16:25:07;4.72;;;1.67;;
39772;SDS011;25451;51.960;6.250;2022-12-07T16:27:33;4.07;;;1.60;;
39772;SDS011;25451;51.960;6.250;2022-12-07T16:29:59;3.67;;;1.70;;
39772;SDS011;25451;51.960;6.250;2022-12-07T16:32:24;3.53;;;1.67;;
39772;SDS011;25451;51.960;6.250;2022-12-07T16:34:49;6.10;;;2.00;;
39772;SDS011;25451;51.960;6.250;2022-12-07T16:37:15;7.07;;;1.90;;
39772;SDS011;25451;51.960;6.250;2022-12-07T16:39:40;3.07;;;1.80;;
39772;SDS011;25451;51.960;6.250;2022-12-07T16:42:05;4.20;;;2.03;;
39772;SDS011;25451;51.960;6.250;2022-12-07T16:44:30;3.90;;;1.70;;
39772;SDS011;25451;51.960;6.250;2022-12-07T16:46:56;7.18;;;2.00;;
39772;SDS011;25451;51.960;6.250;2022-12-07T16:49:21;5.57;;;1.83;;
39772;SDS011;25451;51.960;6.250;2022-12-07T16:51:49;4.20;;;2.08;;
39772;SDS011;25451;51.960;6.250;2022-12-07T16:54:15;4.13;;;1.93;;
39772;SDS011;25451;51.960;6.250;2022-12-07T16:56:40;2.53;;;1.17;;
39772;SDS011;25451;51.960;6.250;2022-12-07T16:59:06;2.43;;;0.70;;
39772;SDS011;25451;51.960;6.250;2022-12-07T17:01:32;3.53;;;0.60;;
39772;SDS011;25451;51.960;6.250;2022-12-07T17:03:59;1.42;;;0.50;;
39772;SDS011;25451;51.960;6.250;2022-12-07T17:06:25;0.97;;;0.40;;
39772;SDS011;25451;51.960;6.250;2022-12-07T17:08:52;2.33;;;0.63;;
39772;SDS011;25451;51.960;6.250;2022-12-07T17:11:19;1.33;;;0.60;;
39772;SDS011;25451;51.960;6.250;2022-12-07T17:13:46;1.85;;;0.70;;